Time;durP1;ratioP1;P1;durP2;ratioP2;P2;SDS_P1;SDS_P2;PMS_P1;PMS_P2;Temp;Humidity;BMP_temperature;BMP_pressure;BME280_temperature;BME280_humidity;BME280_pressure;Samples;Min_cycle;Max_cycle;Signal;HPM_P1;HPM_P2
2021/10/12 00:00:29;;;;;;;;;;;8.90;99.90;;;;;;5084136;28;19929;-73
2021/10/12 00:02:54;;;;;;;;;;;8.90;99.90;;;;;;5054500;28;20446;-73
2021/10/12 00:05:20;;;;;;;;;;;8.80;99.90;;;;;;5083654;28;19923;-72
2021/10/12 00:07:46;;;;;;;;;;;8.80;99.90;;;;;;5079410;28;19920;-73
2021/10/12 00:10:12;;;;;;;;;;;8.80;99.90;;;;;;5086057;28;19912;-73
2021/10/12 00:12:38;;;;;;;;;;;8.80;99.90;;;;;;5083523;28;20328;-73
2021/10/12 00:15:04;;;;;;;;;;;8.80;99.90;;;;;;5070060;28;20375;-73
2021/10/12 00:17:29;;;;;;;;;;;8.80;99.90;;;;;;5088374;28;19916;-73
2021/10/12 00:19:54;;;;;;;;;;;8.80;99.90;;;;;;5085374;28;19923;-73
2021/10/12 00:22:20;;;;;;;;;;;8.80;99.90;;;;;;5085178;28;20275;-73
2021/10/12 00:24:45;;;;;;;;;;;8.80;99.90;;;;;;5087537;28;20385;-73
2021/10/12 00:27:11;;;;;;;;;;;8.80;99.90;;;;;;5085509;28;19916;-73
2021/10/12 00:29:36;;;;;;;;;;;8.80;99.90;;;;;;5084079;28;19912;-73
2021/10/12 00:32:02;;;;;;;;;;;8.80;99.90;;;;;;5077760;28;19921;-73
2021/10/12 00:34:27;;;;;;;;;;;8.80;99.90;;;;;;5085824;28;19916;-73
2021/10/12 00:36:53;;;;;;;;;;;8.80;99.90;;;;;;5084444;28;19922;-73
2021/10/12 00:39:18;;;;;;;;;;;8.80;99.90;;;;;;5085310;28;20007;-73
2021/10/12 00:41:44;;;;;;;;;;;8.90;99.90;;;;;;5085874;28;20415;-73
2021/10/12 00:44:10;;;;;;;;;;;8.90;99.90;;;;;;5088210;28;20393;-73
2021/10/12 00:46:36;;;;;;;;;;;8.90;99.90;;;;;;5136943;22;20356;-72
2021/10/12 00:49:01;;;;;;;;;;;8.90;99.90;;;;;;5056887;28;19916;-72
2021/10/12 00:51:27;;;;;;;;;;;8.90;99.90;;;;;;5054315;28;19923;-72
2021/10/12 00:53:53;;;;;;;;;;;9.00;99.90;;;;;;5039923;28;20216;-72
2021/10/12 00:56:19;;;;;;;;;;;9.00;99.90;;;;;;5054841;28;19916;-72
2021/10/12 00:58:45;;;;;;;;;;;9.00;99.90;;;;;;5047208;28;20360;-71
2021/10/12 01:01:11;;;;;;;;;;;9.10;99.90;;;;;;5046274;28;20299;-72
2021/10/12 01:03:36;;;;;;;;;;;9.10;99.90;;;;;;5046898;28;19909;-72
2021/10/12 01:06:02;;;;;;;;;;;9.10;99.90;;;;;;5045499;28;19915;-72
2021/10/12 01:08:27;;;;;;;;;;;9.20;99.90;;;;;;5047011;28;19915;-72
2021/10/12 01:10:53;;;;;;;;;;;9.20;99.90;;;;;;5026731;28;19991;-72
2021/10/12 01:13:18;;;;;;;;;;;9.20;99.90;;;;;;5047453;28;19909;-72
2021/10/12 01:15:44;;;;;;;;;;;9.20;99.90;;;;;;5048091;28;19921;-72
2021/10/12 01:18:10;;;;;;;;;;;9.20;99.90;;;;;;5023359;28;19931;-72
2021/10/12 01:20:36;;;;;;;;;;;9.10;99.90;;;;;;5031281;28;19921;-73
2021/10/12 01:23:02;;;;;;;;;;;9.10;99.90;;;;;;5046920;28;19917;-72
2021/10/12 01:25:27;;;;;;;;;;;9.10;99.90;;;;;;5047694;28;19912;-72
2021/10/12 01:27:53;;;;;;;;;;;9.10;99.90;;;;;;5050964;28;20303;-72
2021/10/12 01:30:18;;;;;;;;;;;9.10;99.90;;;;;;5050967;28;19978;-72
2021/10/12 01:32:45;;;;;;;;;;;9.00;99.90;;;;;;5050057;28;20259;-72
2021/10/12 01:35:12;;;;;;;;;;;9.00;99.90;;;;;;5022626;28;19964;-72
2021/10/12 01:37:38;;;;;;;;;;;9.00;99.90;;;;;;5050172;28;19935;-72
2021/10/12 01:40:05;;;;;;;;;;;9.00;99.90;;;;;;5046415;28;19917;-72
2021/10/12 01:42:30;;;;;;;;;;;9.00;99.90;;;;;;5045010;28;19912;-71
2021/10/12 01:44:58;;;;;;;;;;;9.00;99.90;;;;;;5024896;28;19916;-72
2021/10/12 01:47:23;;;;;;;;;;;9.00;99.90;;;;;;5048574;28;20001;-71
2021/10/12 01:49:49;;;;;;;;;;;9.00;99.90;;;;;;5049201;28;20383;-72
2021/10/12 01:52:14;;;;;;;;;;;8.90;99.90;;;;;;5046360;28;19970;-72
2021/10/12 01:54:40;;;;;;;;;;;9.00;99.90;;;;;;5046783;28;19920;-72
2021/10/12 01:57:05;;;;;;;;;;;9.00;99.90;;;;;;5049536;28;19913;-72
2021/10/12 01:59:31;;;;;;;;;;;8.90;99.90;;;;;;5050067;28;19916;-72
2021/10/12 02:02:00;;;;;;;;;;;8.90;99.90;;;;;;5026189;28;20355;-72
2021/10/12 02:04:26;;;;;;;;;;;8.90;99.90;;;;;;5042889;28;19917;-72
2021/10/12 02:06:51;;;;;;;;;;;8.90;99.90;;;;;;5045555;28;19924;-72
2021/10/12 02:09:17;;;;;;;;;;;8.90;99.90;;;;;;5046850;28;19959;-72
2021/10/12 02:11:42;;;;;;;;;;;8.90;99.90;;;;;;5046235;28;19917;-72
2021/10/12 02:14:07;;;;;;;;;;;8.90;99.90;;;;;;5023237;28;19920;-72
2021/10/12 02:16:33;;;;;;;;;;;8.90;99.90;;;;;;5050062;28;20031;-72
2021/10/12 02:18:58;;;;;;;;;;;8.90;99.90;;;;;;5047987;28;19939;-72
2021/10/12 02:21:24;;;;;;;;;;;8.90;99.90;;;;;;5021134;28;20291;-72
2021/10/12 02:23:49;;;;;;;;;;;9.00;99.90;;;;;;5048816;28;19924;-72
2021/10/12 02:26:15;;;;;;;;;;;8.90;99.90;;;;;;5049907;28;20000;-72
2021/10/12 02:28:40;;;;;;;;;;;8.90;99.90;;;;;;5049988;28;19909;-72
2021/10/12 02:31:05;;;;;;;;;;;8.90;99.90;;;;;;5046078;28;19921;-72
2021/10/12 02:33:31;;;;;;;;;;;8.90;99.90;;;;;;5047770;28;19963;-72
2021/10/12 02:35:56;;;;;;;;;;;8.90;99.90;;;;;;5047778;28;19920;-72
2021/10/12 02:38:22;;;;;;;;;;;8.90;99.90;;;;;;5046034;28;19923;-72
2021/10/12 02:40:49;;;;;;;;;;;8.90;99.90;;;;;;5048639;28;19913;-72
2021/10/12 02:43:15;;;;;;;;;;;8.90;99.90;;;;;;5047210;28;20302;-72
2021/10/12 02:45:40;;;;;;;;;;;8.90;99.90;;;;;;5043333;28;19923;-72
2021/10/12 02:48:06;;;;;;;;;;;9.00;99.90;;;;;;5044461;28;19986;-72
2021/10/12 02:50:31;;;;;;;;;;;9.00;99.90;;;;;;5049263;28;19917;-72
2021/10/12 02:52:57;;;;;;;;;;;9.10;99.90;;;;;;5046076;28;19936;-72
2021/10/12 02:55:22;;;;;;;;;;;9.10;99.90;;;;;;5046646;28;19917;-72
2021/10/12 02:57:48;;;;;;;;;;;9.10;99.90;;;;;;5047098;28;19992;-72
2021/10/12 03:00:13;;;;;;;;;;;9.10;99.90;;;;;;5046732;28;19927;-72
2021/10/12 03:02:39;;;;;;;;;;;9.10;99.90;;;;;;5045499;28;20008;-72
2021/10/12 03:05:04;;;;;;;;;;;9.20;99.90;;;;;;5046774;28;20023;-72
2021/10/12 03:07:30;;;;;;;;;;;9.10;99.90;;;;;;5047389;28;19920;-72
2021/10/12 03:09:55;;;;;;;;;;;9.20;99.90;;;;;;5046894;28;19982;-72
2021/10/12 03:12:20;;;;;;;;;;;9.20;99.90;;;;;;5022285;28;19917;-72
2021/10/12 03:14:46;;;;;;;;;;;9.20;99.90;;;;;;5046859;28;19912;-72
2021/10/12 03:17:11;;;;;;;;;;;9.20;99.90;;;;;;5047016;28;19963;-72
2021/10/12 03:19:37;;;;;;;;;;;9.20;99.90;;;;;;5046295;28;20425;-72
2021/10/12 03:22:14;;;;;;;;;;;9.20;99.90;;;;;;5045152;28;20016;-72
2021/10/12 03:24:39;;;;;;;;;;;9.30;99.90;;;;;;5048675;28;20000;-72
2021/10/12 03:27:06;;;;;;;;;;;9.30;99.90;;;;;;5046944;28;20294;-72
2021/10/12 03:29:31;;;;;;;;;;;9.30;99.90;;;;;;5047672;28;19970;-72
2021/10/12 03:31:59;;;;;;;;;;;9.30;99.90;;;;;;5042501;28;20435;-72
2021/10/12 03:34:28;;;;;;;;;;;9.30;99.90;;;;;;5046024;28;20405;-72
2021/10/12 03:36:54;;;;;;;;;;;9.30;99.90;;;;;;5043437;28;19916;-72
2021/10/12 03:39:20;;;;;;;;;;;9.30;99.90;;;;;;5044499;28;20451;-72
2021/10/12 03:41:45;;;;;;;;;;;9.30;99.90;;;;;;5043765;28;20015;-72
2021/10/12 03:44:11;;;;;;;;;;;9.30;99.90;;;;;;5048416;28;19939;-72
2021/10/12 03:46:36;;;;;;;;;;;9.40;99.90;;;;;;5046440;28;19913;-72
2021/10/12 03:49:01;;;;;;;;;;;9.40;99.90;;;;;;5045734;28;19917;-73
2021/10/12 03:51:27;;;;;;;;;;;9.40;99.90;;;;;;5043281;28;20265;-73
2021/10/12 03:53:52;;;;;;;;;;;9.40;99.90;;;;;;5047755;28;20401;-73
2021/10/12 03:56:18;;;;;;;;;;;9.40;99.90;;;;;;5045712;28;19916;-72
2021/10/12 03:58:43;;;;;;;;;;;9.40;99.90;;;;;;5044637;28;20392;-72
2021/10/12 04:01:09;;;;;;;;;;;9.40;99.90;;;;;;5039862;28;19936;-72
2021/10/12 04:03:34;;;;;;;;;;;9.40;99.90;;;;;;5048353;28;19912;-73
2021/10/12 04:05:59;;;;;;;;;;;9.50;99.90;;;;;;5040613;28;20338;-73
2021/10/12 04:08:25;;;;;;;;;;;9.50;99.90;;;;;;5045750;28;19916;-70
2021/10/12 04:10:50;;;;;;;;;;;9.50;99.90;;;;;;5042698;28;19917;-70
2021/10/12 04:13:16;;;;;;;;;;;9.50;99.90;;;;;;5022790;28;19913;-70
2021/10/12 04:15:41;;;;;;;;;;;9.50;99.90;;;;;;5033071;28;19913;-71
2021/10/12 04:18:10;;;;;;;;;;;9.50;99.90;;;;;;5021726;28;20351;-71
2021/10/12 04:20:35;;;;;;;;;;;9.50;99.90;;;;;;5043588;28;19913;-73
2021/10/12 04:23:02;;;;;;;;;;;9.50;99.90;;;;;;5043425;28;20383;-72
2021/10/12 04:25:27;;;;;;;;;;;9.50;99.90;;;;;;5042616;28;19917;-73
2021/10/12 04:27:53;;;;;;;;;;;9.60;99.90;;;;;;5047267;28;19959;-70
2021/10/12 04:30:19;;;;;;;;;;;9.60;99.90;;;;;;5046120;28;19981;-70
2021/10/12 04:32:44;;;;;;;;;;;9.60;99.90;;;;;;5045647;28;20386;-70
2021/10/12 04:35:09;;;;;;;;;;;9.60;99.90;;;;;;5039090;28;19913;-70
2021/10/12 04:37:35;;;;;;;;;;;9.60;99.90;;;;;;5043531;28;20016;-70
2021/10/12 04:40:00;;;;;;;;;;;9.60;99.90;;;;;;5036199;28;19924;-70
2021/10/12 04:42:26;;;;;;;;;;;9.60;99.90;;;;;;5039146;28;20012;-69
2021/10/12 04:44:54;;;;;;;;;;;9.50;99.90;;;;;;5041047;28;20370;-68
2021/10/12 04:47:19;;;;;;;;;;;9.50;99.90;;;;;;5039232;28;20375;-67
2021/10/12 04:49:46;;;;;;;;;;;9.50;99.90;;;;;;5044022;28;19920;-68
2021/10/12 04:52:12;;;;;;;;;;;9.50;99.90;;;;;;5032743;28;19921;-69
2021/10/12 04:54:38;;;;;;;;;;;9.50;99.90;;;;;;5038834;28;19913;-68
2021/10/12 04:57:03;;;;;;;;;;;9.50;99.90;;;;;;5021198;28;20000;-67
2021/10/12 04:59:29;;;;;;;;;;;9.50;99.90;;;;;;5046632;28;19920;-67
2021/10/12 05:01:54;;;;;;;;;;;9.40;99.90;;;;;;5021620;28;20019;-68
2021/10/12 05:04:19;;;;;;;;;;;9.50;99.90;;;;;;5044701;28;20268;-67
2021/10/12 05:06:45;;;;;;;;;;;9.40;99.90;;;;;;5048050;28;19921;-67
2021/10/12 05:09:10;;;;;;;;;;;9.50;99.90;;;;;;5047777;28;19913;-68
2021/10/12 05:11:36;;;;;;;;;;;9.40;99.90;;;;;;5051018;28;19917;-68
2021/10/12 05:14:01;;;;;;;;;;;9.50;99.90;;;;;;5050827;28;20307;-68
2021/10/12 05:16:28;;;;;;;;;;;9.40;99.90;;;;;;5040853;28;19916;-68
2021/10/12 05:18:57;;;;;;;;;;;9.40;99.90;;;;;;5049284;28;19916;-68
2021/10/12 05:21:23;;;;;;;;;;;9.40;99.90;;;;;;5046594;28;20043;-68
2021/10/12 05:23:48;;;;;;;;;;;9.40;99.90;;;;;;5041955;28;20007;-69
2021/10/12 05:26:14;;;;;;;;;;;9.40;99.90;;;;;;5045516;28;20589;-69
2021/10/12 05:28:39;;;;;;;;;;;9.40;99.90;;;;;;5042484;28;19908;-71
2021/10/12 05:31:04;;;;;;;;;;;9.40;99.90;;;;;;5044815;28;19963;-70
2021/10/12 05:33:30;;;;;;;;;;;9.50;99.90;;;;;;5045536;28;20352;-70
2021/10/12 05:35:56;;;;;;;;;;;9.40;99.90;;;;;;5048439;28;19962;-70
2021/10/12 05:38:22;;;;;;;;;;;9.50;99.90;;;;;;5046560;28;19908;-70
2021/10/12 05:40:48;;;;;;;;;;;9.50;99.90;;;;;;5046182;28;19966;-70
2021/10/12 05:43:15;;;;;;;;;;;9.50;99.90;;;;;;5047338;28;20397;-70
2021/10/12 05:45:41;;;;;;;;;;;9.50;99.90;;;;;;5048817;28;19909;-70
2021/10/12 05:48:07;;;;;;;;;;;9.50;99.90;;;;;;5023962;28;19944;-70
2021/10/12 05:50:34;;;;;;;;;;;9.50;99.90;;;;;;5050278;28;19923;-70
2021/10/12 05:53:14;;;;;;;;;;;9.50;99.90;;;;;;5040208;28;19995;-70
2021/10/12 05:55:51;;;;;;;;;;;9.50;99.90;;;;;;5050198;28;19959;-70
2021/10/12 06:01:11;;;;;;;;;;;9.50;99.90;;;;;;5023404;28;19916;-70
2021/10/12 06:03:37;;;;;;;;;;;9.50;99.90;;;;;;5047173;28;19917;-69
2021/10/12 06:06:02;;;;;;;;;;;9.50;99.90;;;;;;5047883;28;19982;-70
2021/10/12 06:08:33;;;;;;;;;;;9.50;99.90;;;;;;5047509;28;19917;-70
2021/10/12 06:10:59;;;;;;;;;;;9.60;99.90;;;;;;5050017;28;19919;-69
2021/10/12 06:13:25;;;;;;;;;;;9.60;99.90;;;;;;5047434;28;19920;-70
2021/10/12 06:15:50;;;;;;;;;;;9.60;99.90;;;;;;5049594;28;20327;-69
2021/10/12 06:18:16;;;;;;;;;;;9.60;99.90;;;;;;5050476;28;19920;-69
2021/10/12 06:20:41;;;;;;;;;;;9.60;99.90;;;;;;5049514;28;19913;-70
2021/10/12 06:23:09;;;;;;;;;;;9.60;99.90;;;;;;5048707;28;19917;-69
2021/10/12 06:25:35;;;;;;;;;;;9.50;99.90;;;;;;5049432;28;19963;-70
2021/10/12 06:28:00;;;;;;;;;;;9.60;99.90;;;;;;5050065;28;19962;-69
2021/10/12 06:30:25;;;;;;;;;;;9.60;99.90;;;;;;5047784;28;19921;-70
2021/10/12 06:32:51;;;;;;;;;;;9.60;99.90;;;;;;5029402;28;20314;-70
2021/10/12 06:35:16;;;;;;;;;;;9.60;99.90;;;;;;5049811;28;19913;-70
2021/10/12 06:37:42;;;;;;;;;;;9.60;99.90;;;;;;5049686;28;19913;-69
2021/10/12 06:40:07;;;;;;;;;;;9.60;99.90;;;;;;5031441;28;19915;-70
2021/10/12 06:42:33;;;;;;;;;;;9.60;99.90;;;;;;5048813;28;19917;-69
2021/10/12 06:44:58;;;;;;;;;;;9.60;99.90;;;;;;5048629;28;19917;-69
2021/10/12 06:47:24;;;;;;;;;;;9.60;99.90;;;;;;5050616;28;19978;-74
2021/10/12 06:49:49;;;;;;;;;;;9.60;99.90;;;;;;5021089;28;19924;-75
2021/10/12 06:52:14;;;;;;;;;;;9.60;99.90;;;;;;5048031;28;20303;-75
2021/10/12 06:54:40;;;;;;;;;;;9.60;99.90;;;;;;5048685;28;20430;-75
2021/10/12 06:57:12;;;;;;;;;;;9.60;99.90;;;;;;5049825;28;20450;-75
2021/10/12 06:59:37;;;;;;;;;;;9.70;99.90;;;;;;5048987;28;19966;-75
2021/10/12 07:02:03;;;;;;;;;;;9.70;99.90;;;;;;5047225;28;19924;-75
2021/10/12 07:04:28;;;;;;;;;;;9.70;99.90;;;;;;5046859;28;20003;-75
2021/10/12 07:06:54;;;;;;;;;;;9.70;99.90;;;;;;5049352;28;19934;-75
2021/10/12 07:09:19;;;;;;;;;;;9.70;99.90;;;;;;5049977;28;19913;-74
2021/10/12 07:11:45;;;;;;;;;;;9.70;99.90;;;;;;5046721;28;20039;-75
2021/10/12 07:14:12;;;;;;;;;;;9.70;99.90;;;;;;5045183;28;19924;-75
2021/10/12 07:16:38;;;;;;;;;;;9.70;99.90;;;;;;5048037;28;19917;-75
2021/10/12 07:19:04;;;;;;;;;;;9.70;99.90;;;;;;5048159;28;20374;-75
2021/10/12 07:21:29;;;;;;;;;;;9.60;99.90;;;;;;5045429;28;20012;-74
2021/10/12 07:23:55;;;;;;;;;;;9.60;99.90;;;;;;5048657;28;20055;-75
2021/10/12 07:26:20;;;;;;;;;;;9.60;99.90;;;;;;5048934;28;19928;-75
2021/10/12 07:28:46;;;;;;;;;;;9.50;99.90;;;;;;5047197;28;20424;-75
2021/10/12 07:31:11;;;;;;;;;;;9.50;99.90;;;;;;5046835;28;19921;-76
2021/10/12 07:33:36;;;;;;;;;;;9.50;99.90;;;;;;5048750;28;19909;-75
2021/10/12 07:36:02;;;;;;;;;;;9.50;99.90;;;;;;5048648;28;20382;-75
2021/10/12 07:38:28;;;;;;;;;;;9.50;99.90;;;;;;5045857;28;19921;-75
2021/10/12 07:40:54;;;;;;;;;;;9.50;99.90;;;;;;5046266;28;19923;-75
2021/10/12 07:43:19;;;;;;;;;;;9.50;99.90;;;;;;5048685;28;19912;-75
2021/10/12 07:45:45;;;;;;;;;;;9.50;99.90;;;;;;5048183;28;19917;-75
2021/10/12 07:48:11;;;;;;;;;;;9.50;99.90;;;;;;5047657;28;19921;-75
2021/10/12 07:50:37;;;;;;;;;;;9.50;99.90;;;;;;5048346;28;19919;-75
2021/10/12 07:53:02;;;;;;;;;;;9.40;99.90;;;;;;5046192;28;19920;-75
2021/10/12 07:55:32;;;;;;;;;;;9.40;99.90;;;;;;5044976;28;20363;-75
2021/10/12 07:57:58;;;;;;;;;;;9.50;99.90;;;;;;5048304;28;19960;-75
2021/10/12 08:00:25;;;;;;;;;;;9.50;99.90;;;;;;5048388;28;19947;-75
2021/10/12 08:02:53;;;;;;;;;;;9.50;99.90;;;;;;5026581;28;19916;-75
2021/10/12 08:05:19;;;;;;;;;;;9.60;99.90;;;;;;5045186;28;19920;-75
2021/10/12 08:07:45;;;;;;;;;;;9.60;99.90;;;;;;5048225;28;19919;-75
2021/10/12 08:10:10;;;;;;;;;;;9.70;99.90;;;;;;5047123;28;19913;-75
2021/10/12 08:12:36;;;;;;;;;;;9.70;99.90;;;;;;5046959;28;19919;-76
2021/10/12 08:15:01;;;;;;;;;;;9.80;99.90;;;;;;5048104;28;19939;-75
2021/10/12 08:17:27;;;;;;;;;;;9.90;99.90;;;;;;5048057;28;20367;-75
2021/10/12 08:19:52;;;;;;;;;;;9.90;99.90;;;;;;5045418;28;19917;-75
2021/10/12 08:22:18;;;;;;;;;;;10.00;99.90;;;;;;5046013;28;19923;-75
2021/10/12 08:24:43;;;;;;;;;;;10.00;99.90;;;;;;5047570;28;19916;-75
2021/10/12 08:27:09;;;;;;;;;;;10.00;99.90;;;;;;5029905;28;19912;-75
2021/10/12 08:29:35;;;;;;;;;;;10.10;99.90;;;;;;5047615;28;19982;-75
2021/10/12 08:32:00;;;;;;;;;;;10.10;99.90;;;;;;5046235;28;20003;-75
2021/10/12 08:34:26;;;;;;;;;;;10.10;99.90;;;;;;5048064;28;20366;-75
2021/10/12 08:36:51;;;;;;;;;;;10.10;99.90;;;;;;5036404;28;19921;-75
2021/10/12 08:39:18;;;;;;;;;;;10.20;99.90;;;;;;5047145;28;19938;-75
2021/10/12 08:41:49;;;;;;;;;;;10.20;99.90;;;;;;5046263;28;19924;-75
2021/10/12 08:44:14;;;;;;;;;;;10.30;99.90;;;;;;5047267;28;20360;-75
2021/10/12 08:46:40;;;;;;;;;;;10.30;99.90;;;;;;5046474;28;19965;-75
2021/10/12 08:49:05;;;;;;;;;;;10.40;99.90;;;;;;5046612;28;20012;-75
2021/10/12 08:51:31;;;;;;;;;;;10.50;99.90;;;;;;5018639;28;20003;-75
2021/10/12 08:53:56;;;;;;;;;;;10.50;99.90;;;;;;5046355;28;20008;-76
2021/10/12 08:56:22;;;;;;;;;;;10.50;99.90;;;;;;5046857;28;19960;-76
2021/10/12 08:58:47;;;;;;;;;;;10.60;99.90;;;;;;5047269;28;19913;-76
2021/10/12 09:01:13;;;;;;;;;;;10.60;99.90;;;;;;5046237;28;20383;-76
2021/10/12 09:03:51;;;;;;;;;;;10.70;99.90;;;;;;5029944;28;20372;-76
2021/10/12 09:06:26;;;;;;;;;;;10.70;99.90;;;;;;5047489;28;19920;-76
2021/10/12 09:08:55;;;;;;;;;;;10.80;99.90;;;;;;5044632;28;19921;-76
2021/10/12 09:11:21;;;;;;;;;;;10.80;99.90;;;;;;5020866;28;19924;-76
2021/10/12 09:13:48;;;;;;;;;;;10.90;99.90;;;;;;5046859;28;19978;-76
2021/10/12 09:16:17;;;;;;;;;;;10.90;99.90;;;;;;5021097;28;19908;-76
2021/10/12 09:18:45;;;;;;;;;;;11.00;99.90;;;;;;5021317;28;19943;-76
2021/10/12 09:21:14;;;;;;;;;;;11.00;99.90;;;;;;5046176;28;19921;-76
2021/10/12 09:23:40;;;;;;;;;;;11.10;99.90;;;;;;5046495;28;20000;-76
2021/10/12 09:26:17;;;;;;;;;;;11.10;99.90;;;;;;5047648;28;19934;-76
2021/10/12 09:28:42;;;;;;;;;;;11.20;99.90;;;;;;5045533;28;19970;-76
2021/10/12 09:31:08;;;;;;;;;;;11.20;99.90;;;;;;5045752;28;19917;-76
2021/10/12 09:33:44;;;;;;;;;;;11.20;99.90;;;;;;5046452;28;19967;-76
2021/10/12 09:36:25;;;;;;;;;;;11.30;99.90;;;;;;5048914;28;19913;-76
2021/10/12 09:38:50;;;;;;;;;;;11.30;99.90;;;;;;5049926;28;20419;-77
2021/10/12 09:41:16;;;;;;;;;;;11.30;99.90;;;;;;5049824;28;19920;-76
2021/10/12 09:43:42;;;;;;;;;;;11.20;99.90;;;;;;5048794;28;19921;-76
2021/10/12 09:46:21;;;;;;;;;;;11.20;99.90;;;;;;5049933;28;19908;-76
2021/10/12 09:48:47;;;;;;;;;;;11.10;99.90;;;;;;5050174;28;19936;-77
2021/10/12 09:51:13;;;;;;;;;;;11.10;99.90;;;;;;5040418;28;19924;-77
2021/10/12 09:53:40;;;;;;;;;;;11.20;99.90;;;;;;5050633;28;19908;-77
2021/10/12 09:56:06;;;;;;;;;;;11.20;99.90;;;;;;5022950;28;19975;-77
2021/10/12 09:58:32;;;;;;;;;;;11.30;99.90;;;;;;5051368;28;19908;-76
2021/10/12 10:01:03;;;;;;;;;;;11.30;99.90;;;;;;5045890;28;19928;-78
2021/10/12 10:03:29;;;;;;;;;;;11.40;99.90;;;;;;5049578;28;19913;-77
2021/10/12 10:05:57;;;;;;;;;;;11.40;99.90;;;;;;5050973;28;20379;-77
2021/10/12 10:08:23;;;;;;;;;;;11.50;99.90;;;;;;5049258;28;19960;-77
2021/10/12 10:10:48;;;;;;;;;;;11.50;99.90;;;;;;5050263;28;19952;-77
2021/10/12 10:13:15;;;;;;;;;;;11.50;99.70;;;;;;5025089;28;19913;-77
2021/10/12 10:15:41;;;;;;;;;;;11.50;99.90;;;;;;5040948;28;19920;-77
2021/10/12 10:18:06;;;;;;;;;;;11.50;99.90;;;;;;5050710;28;19909;-77
2021/10/12 10:20:31;;;;;;;;;;;11.50;99.90;;;;;;5047990;28;19920;-78
2021/10/12 10:22:58;;;;;;;;;;;11.60;99.50;;;;;;5045411;28;19939;-78
2021/10/12 10:25:25;;;;;;;;;;;11.50;99.60;;;;;;5022445;28;20011;-77
2021/10/12 10:27:51;;;;;;;;;;;11.50;99.80;;;;;;5050383;28;19915;-77
2021/10/12 10:30:16;;;;;;;;;;;11.50;99.50;;;;;;5049959;28;19997;-77
2021/10/12 10:32:52;;;;;;;;;;;11.60;99.50;;;;;;5049194;28;19994;-77
2021/10/12 10:35:37;;;;;;;;;;;11.70;99.00;;;;;;5047096;28;20368;-78
2021/10/12 10:38:22;;;;;;;;;;;11.70;97.80;;;;;;5025262;28;20293;-78
2021/10/12 10:40:48;;;;;;;;;;;11.60;97.10;;;;;;5049636;28;20016;-77
2021/10/12 10:43:13;;;;;;;;;;;11.50;97.20;;;;;;5048251;28;19913;-77
2021/10/12 10:45:43;;;;;;;;;;;11.50;97.40;;;;;;5048966;28;20100;-78
2021/10/12 10:48:10;;;;;;;;;;;11.50;97.60;;;;;;5047833;28;20015;-78
2021/10/12 10:50:36;;;;;;;;;;;11.50;97.80;;;;;;5047925;28;19913;-78
2021/10/12 10:53:03;;;;;;;;;;;11.50;97.80;;;;;;5046678;28;19924;-77
2021/10/12 10:55:29;;;;;;;;;;;11.60;97.60;;;;;;5049171;28;20360;-77
2021/10/12 10:58:05;;;;;;;;;;;11.70;96.90;;;;;;5022692;28;19986;-77
2021/10/12 11:00:47;;;;;;;;;;;11.80;97.10;;;;;;5048263;28;19908;-77
2021/10/12 11:03:25;;;;;;;;;;;12.00;96.30;;;;;;5030675;28;20353;-77
2021/10/12 11:05:51;;;;;;;;;;;12.00;95.50;;;;;;5049435;28;20260;-76
2021/10/12 11:08:18;;;;;;;;;;;11.90;95.70;;;;;;5047106;28;19912;-77
2021/10/12 11:10:45;;;;;;;;;;;11.90;95.60;;;;;;5021706;28;19948;-77
2021/10/12 11:13:11;;;;;;;;;;;11.80;96.30;;;;;;5046551;28;19917;-77
2021/10/12 11:15:50;;;;;;;;;;;11.70;96.20;;;;;;5030376;28;19913;-77
2021/10/12 11:18:15;;;;;;;;;;;11.70;95.90;;;;;;5048898;28;20291;-77
2021/10/12 11:20:42;;;;;;;;;;;11.70;95.90;;;;;;5022059;28;19913;-77
2021/10/12 11:23:08;;;;;;;;;;;11.70;95.80;;;;;;5047801;28;20027;-77
2021/10/12 11:25:34;;;;;;;;;;;11.70;95.60;;;;;;5048215;28;19916;-77
2021/10/12 11:28:07;;;;;;;;;;;11.80;95.50;;;;;;5029171;28;20371;-77
2021/10/12 11:30:34;;;;;;;;;;;11.80;95.20;;;;;;5021596;28;19913;-77
2021/10/12 11:32:59;;;;;;;;;;;11.80;94.50;;;;;;5021726;28;19996;-77
2021/10/12 11:35:31;;;;;;;;;;;11.90;94.20;;;;;;5048833;28;20019;-76
2021/10/12 11:37:56;;;;;;;;;;;11.90;94.20;;;;;;5030191;28;19989;-76
2021/10/12 11:40:25;;;;;;;;;;;11.90;94.40;;;;;;5047933;28;20549;-76
2021/10/12 11:42:56;;;;;;;;;;;11.90;94.50;;;;;;5047381;28;19966;-76
2021/10/12 11:45:21;;;;;;;;;;;11.90;94.70;;;;;;5045075;28;19913;-77
2021/10/12 11:47:47;;;;;;;;;;;12.00;94.00;;;;;;5047269;28;19928;-76
2021/10/12 11:50:13;;;;;;;;;;;12.10;93.90;;;;;;5048278;28;19916;-76
2021/10/12 11:52:39;;;;;;;;;;;12.20;92.70;;;;;;5046953;28;20398;-76
2021/10/12 11:55:04;;;;;;;;;;;12.20;92.30;;;;;;5047147;28;19951;-77
2021/10/12 11:57:30;;;;;;;;;;;12.20;91.50;;;;;;5048615;28;19908;-76
2021/10/12 11:59:56;;;;;;;;;;;12.10;91.50;;;;;;5047188;28;19920;-76
2021/10/12 12:02:21;;;;;;;;;;;12.20;91.80;;;;;;5044273;28;20338;-76
2021/10/12 12:04:47;;;;;;;;;;;12.30;91.70;;;;;;5046385;28;19999;-76
2021/10/12 12:07:13;;;;;;;;;;;12.40;91.40;;;;;;5047988;28;19908;-76
2021/10/12 12:09:40;;;;;;;;;;;12.50;91.10;;;;;;5047753;28;20294;-75
2021/10/12 12:12:06;;;;;;;;;;;12.60;90.40;;;;;;5046598;28;19996;-75
2021/10/12 12:14:31;;;;;;;;;;;12.70;90.40;;;;;;5047671;28;19908;-76
2021/10/12 12:17:23;;;;;;;;;;;12.70;89.60;;;;;;5047940;28;19982;-76
2021/10/12 12:19:50;;;;;;;;;;;12.70;89.00;;;;;;5022957;28;19923;-76
2021/10/12 12:22:23;;;;;;;;;;;12.70;90.00;;;;;;5045960;28;20418;-76
2021/10/12 12:24:59;;;;;;;;;;;12.60;90.30;;;;;;5047376;28;19909;-76
2021/10/12 12:27:25;;;;;;;;;;;12.50;90.50;;;;;;5047543;28;19913;-76
2021/10/12 12:30:20;;;;;;;;;;;12.40;90.70;;;;;;5046081;28;19913;-76
2021/10/12 12:32:59;;;;;;;;;;;12.40;90.60;;;;;;5020237;28;19921;-76
2021/10/12 12:35:25;;;;;;;;;;;12.40;91.20;;;;;;5042108;28;19913;-76
2021/10/12 12:38:01;;;;;;;;;;;12.40;91.20;;;;;;5038143;28;19915;-77
2021/10/12 12:40:28;;;;;;;;;;;12.40;90.80;;;;;;5021533;28;19909;-76
2021/10/12 12:42:53;;;;;;;;;;;12.40;91.00;;;;;;5047045;28;19964;-77
2021/10/12 12:45:22;;;;;;;;;;;12.30;91.00;;;;;;5047627;28;19949;-76
2021/10/12 12:47:54;;;;;;;;;;;12.20;90.10;;;;;;5069848;22;19917;-72
2021/10/12 12:50:26;;;;;;;;;;;12.10;90.70;;;;;;5085634;28;20276;-72
2021/10/12 12:52:53;;;;;;;;;;;12.10;91.00;;;;;;5076854;28;19943;-71
2021/10/12 12:55:32;;;;;;;;;;;12.00;90.70;;;;;;5086841;28;19954;-72
2021/10/12 12:57:57;;;;;;;;;;;11.90;90.40;;;;;;5069548;28;19913;-72
2021/10/12 13:00:23;;;;;;;;;;;11.90;90.10;;;;;;5087439;28;19985;-71
2021/10/12 13:02:58;;;;;;;;;;;11.90;89.90;;;;;;5085424;28;19950;-71
2021/10/12 13:05:25;;;;;;;;;;;11.90;90.00;;;;;;5087643;28;19912;-71
2021/10/12 13:07:51;;;;;;;;;;;12.00;89.00;;;;;;5082930;28;19984;-71
2021/10/12 13:10:16;;;;;;;;;;;12.00;88.50;;;;;;5088577;28;19912;-71
2021/10/12 13:12:46;;;;;;;;;;;12.00;88.50;;;;;;5090700;28;19956;-71
2021/10/12 13:15:12;;;;;;;;;;;12.00;88.00;;;;;;5090748;28;20278;-71
2021/10/12 13:17:38;;;;;;;;;;;12.00;88.10;;;;;;5091812;28;19908;-71
2021/10/12 13:20:03;;;;;;;;;;;12.00;88.90;;;;;;5091634;28;19919;-71
2021/10/12 13:22:29;;;;;;;;;;;12.10;88.10;;;;;;5087325;28;20336;-72
2021/10/12 13:24:54;;;;;;;;;;;12.10;87.80;;;;;;5087616;28;19970;-71
2021/10/12 13:27:20;;;;;;;;;;;12.10;88.60;;;;;;5091428;28;19908;-71
2021/10/12 13:29:48;;;;;;;;;;;12.20;88.10;;;;;;5091256;28;19912;-71
2021/10/12 13:32:14;;;;;;;;;;;12.20;87.00;;;;;;5089462;28;19981;-71
2021/10/12 13:34:39;;;;;;;;;;;12.30;87.50;;;;;;5090687;28;19908;-71
2021/10/12 13:37:05;;;;;;;;;;;12.30;87.20;;;;;;5091209;28;19962;-71
2021/10/12 13:39:30;;;;;;;;;;;12.30;87.10;;;;;;5087567;28;19912;-71
2021/10/12 13:41:56;;;;;;;;;;;12.40;87.60;;;;;;5088255;28;19931;-71
2021/10/12 13:44:22;;;;;;;;;;;12.50;85.80;;;;;;5090498;28;20330;-71
2021/10/12 13:46:47;;;;;;;;;;;12.50;85.90;;;;;;5072318;28;19919;-71
2021/10/12 13:49:13;;;;;;;;;;;12.50;84.40;;;;;;5089966;28;19916;-71
2021/10/12 13:51:39;;;;;;;;;;;12.60;84.80;;;;;;5091823;28;19916;-72
2021/10/12 13:54:04;;;;;;;;;;;12.50;82.30;;;;;;5091635;28;19912;-71
2021/10/12 13:56:30;;;;;;;;;;;12.50;82.80;;;;;;5095179;28;20299;-72
2021/10/12 13:58:55;;;;;;;;;;;12.40;83.70;;;;;;5094893;28;19908;-72
2021/10/12 14:01:22;;;;;;;;;;;12.40;83.10;;;;;;5093281;28;20358;-72
2021/10/12 14:03:48;;;;;;;;;;;12.20;83.70;;;;;;5090566;28;19919;-71
2021/10/12 14:06:15;;;;;;;;;;;12.20;83.90;;;;;;5089899;28;19994;-71
2021/10/12 14:08:40;;;;;;;;;;;12.10;85.10;;;;;;5090217;28;19997;-72
2021/10/12 14:11:06;;;;;;;;;;;12.10;84.50;;;;;;5068807;28;21945;-71
2021/10/12 14:13:31;;;;;;;;;;;12.10;85.50;;;;;;5090570;28;19908;-70
2021/10/12 14:15:57;;;;;;;;;;;12.10;84.80;;;;;;5072560;28;20312;-71
2021/10/12 14:18:23;;;;;;;;;;;12.00;84.70;;;;;;5090538;28;19908;-71
2021/10/12 14:20:49;;;;;;;;;;;12.00;83.10;;;;;;5089646;28;20009;-72
2021/10/12 14:23:15;;;;;;;;;;;12.00;83.70;;;;;;5088258;28;19912;-72